»·PEaware :: N8833D KLGA-KDCA

N8833D :: KLGA-KDCA

FLIGHT INFORMATION

Flight Status: Arrived
Operator: Privately registered:
United States
More flights under this callsign
Pilot: Cooper L. (8467)
Aircraft: BOEING 777-200
(B772)
More flights by this aircraft type
Origin: KLGA La Guardia
United States
Destination: KDCA Ronald Reagan Washington Natl
United States
More flights between these airports :: More routes between these airports
Route: GLDMN5 CLIPR1
File this flight plan on PilotEdge
Remarks:
Altitude:
(Current/Filed)
20,000ft
Speed:
(Current/Filed)
300kts
Departed: 22-Nov-15 08:27 PM
Arrived: 22-Nov-15 09:21 PM
Distance/Time
Traveled:
186nm/0:54
Distance/Time
To Go:
Arrived

Flight Plot

Page will automatically refresh every two minutes.


Map Options




Map Legend


Flown Route
Filed Route
Departure Airport
Arrival Airport
Navaid (VOR, NDB)
Fix

Horizontal Profiles

Position Reports

Time Latitude Longitude Heading Altitude Ground
Speed
22-Nov-15 20:18 40.777102 -73.871405 303 25ft 0kts
22-Nov-15 20:19 40.777102 -73.871405 303 25ft 0kts
22-Nov-15 20:20 40.777102 -73.871405 303 25ft 0kts
22-Nov-15 20:21 40.778663 -73.873270 304 25ft 9kts
22-Nov-15 20:22 40.780135 -73.876397 302 24ft 11kts
22-Nov-15 20:23 40.782036 -73.878340 56 25ft 5kts
22-Nov-15 20:24 40.774670 -73.862445 116 186ft 189kts
22-Nov-15 20:25 40.723782 -73.828260 189 4136ft 250kts
22-Nov-15 20:26 40.682761 -73.879244 258 8935ft 206kts
22-Nov-15 20:27 40.692188 -73.949901 303 10316ft 330kts
22-Nov-15 20:28 40.692188 -73.949901 303 10316ft 330kts
22-Nov-15 20:29 40.697541 -73.957541 309 10390ft 347kts
22-Nov-15 20:30 40.783745 -74.031119 304 13966ft 395kts
22-Nov-15 20:31 40.806155 -74.152563 242 18050ft 353kts
22-Nov-15 20:32 40.746054 -74.237133 214 19995ft 332kts
22-Nov-15 20:33 40.683547 -74.323618 221 20004ft 337kts
22-Nov-15 20:34 40.621772 -74.418895 222 20010ft 361kts
22-Nov-15 20:35 40.560942 -74.513707 222 20005ft 360kts
22-Nov-15 20:36 40.495492 -74.615454 222 19999ft 360kts
22-Nov-15 20:37 40.432102 -74.714306 223 20003ft 359kts
22-Nov-15 20:38 40.367658 -74.814076 223 20324ft 371kts
22-Nov-15 20:39 40.303896 -74.912379 221 24004ft 375kts
22-Nov-15 20:40 40.248068 -74.998109 221 24004ft 369kts
22-Nov-15 20:41 40.181999 -75.099193 221 24013ft 369kts
22-Nov-15 20:42 40.116380 -75.199289 221 24019ft 369kts
22-Nov-15 20:43 40.050427 -75.299568 221 24021ft 368kts
22-Nov-15 20:44 39.984332 -75.399736 221 24023ft 368kts
22-Nov-15 20:45 39.918458 -75.499247 221 24025ft 368kts
22-Nov-15 20:46 39.852231 -75.598982 221 24052ft 367kts
22-Nov-15 20:47 39.797593 -75.681132 223 24056ft 373kts
22-Nov-15 20:48 39.729188 -75.784134 224 24053ft 383kts
22-Nov-15 20:49 39.659158 -75.888801 225 24036ft 389kts
22-Nov-15 20:50 39.591697 -75.989196 225 24066ft 369kts
22-Nov-15 20:51 39.524653 -76.088571 225 24095ft 369kts
22-Nov-15 20:52 39.458596 -76.186133 226 22207ft 361kts
22-Nov-15 20:53 39.393526 -76.281992 226 20318ft 354kts
22-Nov-15 20:54 39.329405 -76.376179 227 18576ft 349kts
22-Nov-15 20:55 39.266857 -76.467783 227 16957ft 344kts
22-Nov-15 20:56 39.204632 -76.558652 228 15398ft 340kts
22-Nov-15 20:57 39.142996 -76.648403 228 13941ft 336kts
22-Nov-15 20:58 39.083148 -76.735981 228 12562ft 332kts
22-Nov-15 20:59 39.022567 -76.823715 228 11156ft 328kts
22-Nov-15 21:00 38.973170 -76.917746 261 9760ft 323kts
22-Nov-15 21:01 38.978340 -77.020537 290 8757ft 260kts
22-Nov-15 21:02 39.027205 -77.088302 313 7588ft 259kts
22-Nov-15 21:03 39.077880 -77.151679 313 6531ft 254kts
22-Nov-15 21:04 39.072203 -77.221397 201 5073ft 241kts
22-Nov-15 21:05 39.011694 -77.190165 147 3644ft 246kts
22-Nov-15 21:06 38.965064 -77.147272 142 2343ft 172kts
22-Nov-15 21:07 38.934590 -77.120366 145 1201ft 158kts
22-Nov-15 21:08 38.904782 -77.083383 104 643ft 150kts
22-Nov-15 21:09 38.877557 -77.043246 146 362ft 155kts
22-Nov-15 21:10 38.844330 -77.037101 175 33ft 43kts
22-Nov-15 21:18 38.847216 -77.043323 130 33ft 0kts

Navigation Log

Ident Type
Flight plan parsing failed, navigation log unavailable